Time;durP1;ratioP1;P1;durP2;ratioP2;P2;SDS_P1;SDS_P2;PMS_P1;PMS_P2;Temp;Humidity;BMP_temperature;BMP_pressure;BME280_temperature;BME280_humidity;BME280_pressure;Samples;Min_cycle;Max_cycle;Signal;HPM_P1;HPM_P2
2022/06/15 00:00:47;;;;;;;5.70;2.00;;;;;;;;;;5115881;28;20848;-74
2022/06/15 00:03:17;;;;;;;5.67;2.47;;;;;;;;;;5116305;28;20462;-73
2022/06/15 00:05:45;;;;;;;5.10;1.97;;;;;;;;;;5116337;28;20487;-73
2022/06/15 00:08:12;;;;;;;3.40;2.00;;;;;;;;;;5116161;28;20483;-73
2022/06/15 00:10:44;;;;;;;4.23;1.63;;;;;;;;;;5116342;28;20524;-74
2022/06/15 00:13:12;;;;;;;4.43;2.33;;;;;;;;;;5116290;28;20465;-74
2022/06/15 00:15:40;;;;;;;5.50;2.07;;;;;;;;;;5116326;28;20493;-73
2022/06/15 00:18:08;;;;;;;5.00;2.27;;;;;;;;;;5116156;28;20470;-73
2022/06/15 00:20:38;;;;;;;4.30;2.10;;;;;;;;;;5115993;28;20462;-74
2022/06/15 00:23:05;;;;;;;5.43;2.83;;;;;;;;;;5116275;28;20546;-74
2022/06/15 00:25:33;;;;;;;4.50;2.30;;;;;;;;;;5115872;28;20451;-74
2022/06/15 00:28:01;;;;;;;4.30;2.37;;;;;;;;;;5115428;28;20462;-73
2022/06/15 00:30:29;;;;;;;6.67;2.20;;;;;;;;;;5116562;28;20549;-73
2022/06/15 00:32:57;;;;;;;4.50;2.00;;;;;;;;;;5115409;28;20473;-74
2022/06/15 00:35:25;;;;;;;3.40;2.43;;;;;;;;;;5115828;28;20462;-73
2022/06/15 00:37:54;;;;;;;4.07;2.23;;;;;;;;;;5116562;28;20462;-73
2022/06/15 00:40:22;;;;;;;5.20;2.70;;;;;;;;;;5115446;28;20465;-73
2022/06/15 00:42:53;;;;;;;4.83;2.00;;;;;;;;;;5116665;28;20815;-73
2022/06/15 00:45:21;;;;;;;3.20;1.80;;;;;;;;;;5118888;27;20458;-73
2022/06/15 00:47:49;;;;;;;5.00;2.30;;;;;;;;;;5119889;27;20467;-73
2022/06/15 00:50:19;;;;;;;4.43;2.27;;;;;;;;;;5120307;27;20893;-73
2022/06/15 00:52:49;;;;;;;4.63;2.10;;;;;;;;;;5120084;27;20451;-74
2022/06/15 00:55:21;;;;;;;4.53;2.00;;;;;;;;;;5119548;27;20721;-73
2022/06/15 00:57:49;;;;;;;4.17;2.37;;;;;;;;;;5119577;27;20731;-73
2022/06/15 01:00:18;;;;;;;6.10;2.67;;;;;;;;;;5119828;27;20452;-73
2022/06/15 01:02:46;;;;;;;3.87;2.13;;;;;;;;;;5119421;27;20458;-73
2022/06/15 01:05:15;;;;;;;3.80;2.53;;;;;;;;;;5119475;27;20465;-73
2022/06/15 01:07:58;;;;;;;7.10;2.50;;;;;;;;;;5119214;27;20470;-73
2022/06/15 01:10:32;;;;;;;4.60;2.50;;;;;;;;;;5117455;27;20490;-73
2022/06/15 01:13:09;;;;;;;6.03;2.20;;;;;;;;;;5118273;27;20459;-73
2022/06/15 01:15:41;;;;;;;4.23;2.47;;;;;;;;;;5119261;27;20454;-73
2022/06/15 01:18:16;;;;;;;5.50;1.93;;;;;;;;;;5119059;27;20463;-73
2022/06/15 01:20:50;;;;;;;5.27;2.37;;;;;;;;;;5118269;27;20528;-73
2022/06/15 01:23:29;;;;;;;5.03;2.27;;;;;;;;;;5119117;27;20465;-73
2022/06/15 01:26:10;;;;;;;4.40;2.60;;;;;;;;;;5119548;27;20767;-73
2022/06/15 01:28:42;;;;;;;6.03;1.80;;;;;;;;;;5119243;27;20920;-73
2022/06/15 01:31:16;;;;;;;5.73;2.40;;;;;;;;;;5118213;27;20447;-73
2022/06/15 01:33:50;;;;;;;3.90;2.00;;;;;;;;;;5119742;27;20461;-73
2022/06/15 01:36:22;;;;;;;3.70;2.00;;;;;;;;;;5118883;27;20695;-73
2022/06/15 01:38:54;;;;;;;3.57;1.90;;;;;;;;;;5119530;27;20462;-74
2022/06/15 01:41:25;;;;;;;4.53;2.20;;;;;;;;;;5118121;27;20796;-73
2022/06/15 01:43:57;;;;;;;4.30;2.43;;;;;;;;;;5116321;27;20515;-73
2022/06/15 01:46:29;;;;;;;3.07;1.90;;;;;;;;;;5118569;28;20455;-74
2022/06/15 01:48:58;;;;;;;5.47;2.33;;;;;;;;;;5118674;27;20489;-73
2022/06/15 01:51:36;;;;;;;5.90;2.30;;;;;;;;;;5118496;27;20462;-74
2022/06/15 01:54:10;;;;;;;4.60;2.20;;;;;;;;;;5118826;27;20454;-74
2022/06/15 01:56:39;;;;;;;5.03;2.57;;;;;;;;;;5117997;27;20478;-74
2022/06/15 01:59:11;;;;;;;4.63;2.53;;;;;;;;;;5118882;27;20460;-74
2022/06/15 02:01:45;;;;;;;3.50;2.20;;;;;;;;;;5118236;27;20454;-74
2022/06/15 02:04:15;;;;;;;5.37;2.27;;;;;;;;;;5118352;27;20455;-74
2022/06/15 02:06:50;;;;;;;5.27;2.73;;;;;;;;;;5118753;27;21038;-74
2022/06/15 02:09:22;;;;;;;3.97;2.80;;;;;;;;;;5117800;27;20469;-74
2022/06/15 02:11:49;;;;;;;5.40;2.43;;;;;;;;;;5117603;27;20466;-74
2022/06/15 02:14:20;;;;;;;4.37;2.60;;;;;;;;;;5118376;27;20519;-74
2022/06/15 02:16:52;;;;;;;5.40;2.10;;;;;;;;;;5118400;27;20474;-73
2022/06/15 02:19:23;;;;;;;6.20;2.57;;;;;;;;;;5117600;27;20544;-74
2022/06/15 02:21:52;;;;;;;7.33;3.07;;;;;;;;;;5118573;27;20497;-74
2022/06/15 02:24:22;;;;;;;3.17;2.67;;;;;;;;;;5118339;27;20514;-74
2022/06/15 02:26:50;;;;;;;4.20;2.30;;;;;;;;;;5117503;27;20486;-74
2022/06/15 02:29:20;;;;;;;6.50;2.63;;;;;;;;;;5118440;27;20482;-74
2022/06/15 02:31:49;;;;;;;4.40;2.53;;;;;;;;;;5117110;27;20480;-74
2022/06/15 02:34:17;;;;;;;6.13;2.53;;;;;;;;;;5117834;27;20451;-74
2022/06/15 02:36:45;;;;;;;5.93;2.63;;;;;;;;;;5117441;27;20545;-74
2022/06/15 02:39:13;;;;;;;3.80;2.30;;;;;;;;;;5116988;27;20945;-74
2022/06/15 02:41:41;;;;;;;4.30;2.63;;;;;;;;;;5118422;27;20538;-74
2022/06/15 02:44:10;;;;;;;4.00;2.70;;;;;;;;;;5117968;27;20907;-74
2022/06/15 02:46:40;;;;;;;4.50;2.20;;;;;;;;;;5116877;27;20450;-74
2022/06/15 02:49:09;;;;;;;4.77;2.73;;;;;;;;;;5117301;28;20502;-74
2022/06/15 02:51:40;;;;;;;4.73;2.63;;;;;;;;;;5117797;27;20565;-75
2022/06/15 02:54:10;;;;;;;6.30;2.63;;;;;;;;;;5116624;27;20465;-74
2022/06/15 02:56:38;;;;;;;5.13;2.27;;;;;;;;;;5117863;27;20454;-74
2022/06/15 02:59:07;;;;;;;4.10;3.00;;;;;;;;;;5116035;27;20467;-73
2022/06/15 03:01:36;;;;;;;5.20;2.97;;;;;;;;;;5117125;27;20512;-74
2022/06/15 03:04:06;;;;;;;4.53;2.87;;;;;;;;;;5117287;27;20590;-74
2022/06/15 03:06:35;;;;;;;5.23;2.97;;;;;;;;;;5114205;28;20455;-73
2022/06/15 03:09:03;;;;;;;5.27;3.17;;;;;;;;;;5115718;27;20482;-74
2022/06/15 03:11:31;;;;;;;4.83;2.30;;;;;;;;;;5115510;27;20454;-74
2022/06/15 03:13:59;;;;;;;7.23;3.80;;;;;;;;;;5115503;27;20482;-73
2022/06/15 03:16:27;;;;;;;4.37;2.70;;;;;;;;;;5116434;28;20463;-74
2022/06/15 03:18:55;;;;;;;4.73;2.50;;;;;;;;;;5115803;27;20466;-74
2022/06/15 03:21:23;;;;;;;5.17;3.33;;;;;;;;;;5114945;28;20776;-73
2022/06/15 03:23:53;;;;;;;4.47;2.33;;;;;;;;;;5115229;27;20651;-73
2022/06/15 03:26:21;;;;;;;4.10;2.63;;;;;;;;;;5114811;27;20798;-74
2022/06/15 03:28:48;;;;;;;6.30;2.37;;;;;;;;;;5115162;28;20451;-73
2022/06/15 03:31:16;;;;;;;6.17;2.10;;;;;;;;;;5116369;28;20479;-73
2022/06/15 03:33:44;;;;;;;4.10;2.47;;;;;;;;;;5115167;27;20750;-73
2022/06/15 03:36:12;;;;;;;5.13;2.67;;;;;;;;;;5115345;28;20537;-74
2022/06/15 03:38:40;;;;;;;4.40;2.10;;;;;;;;;;5116374;28;20459;-74
2022/06/15 03:41:09;;;;;;;5.37;2.90;;;;;;;;;;5116003;27;20869;-73
2022/06/15 03:43:37;;;;;;;4.03;2.40;;;;;;;;;;5117054;27;20469;-74
2022/06/15 03:46:05;;;;;;;7.00;3.20;;;;;;;;;;5116677;27;20553;-73
2022/06/15 03:48:33;;;;;;;5.10;2.60;;;;;;;;;;5115402;27;20483;-74
2022/06/15 03:51:01;;;;;;;4.80;2.77;;;;;;;;;;5115973;27;20494;-74
2022/06/15 03:53:30;;;;;;;4.60;2.47;;;;;;;;;;5116078;28;20895;-74
2022/06/15 03:56:02;;;;;;;4.90;2.30;;;;;;;;;;5115067;28;20483;-74
2022/06/15 03:58:31;;;;;;;3.80;2.10;;;;;;;;;;5115802;28;20504;-74
2022/06/15 04:00:59;;;;;;;4.80;2.20;;;;;;;;;;5115972;28;20733;-73
2022/06/15 04:03:27;;;;;;;3.70;2.10;;;;;;;;;;5116526;28;20459;-74
2022/06/15 04:05:59;;;;;;;2.70;2.07;;;;;;;;;;5098522;28;20467;-73
2022/06/15 04:08:42;;;;;;;4.47;2.43;;;;;;;;;;5115149;28;20485;-73
2022/06/15 04:11:10;;;;;;;3.77;2.60;;;;;;;;;;5116301;28;20922;-73
2022/06/15 04:13:43;;;;;;;6.57;2.80;;;;;;;;;;5117487;28;20466;-74
2022/06/15 04:16:16;;;;;;;8.47;2.60;;;;;;;;;;5115385;28;20554;-73
2022/06/15 04:18:44;;;;;;;5.40;2.60;;;;;;;;;;5115703;28;20687;-73
2022/06/15 04:21:12;;;;;;;6.20;2.67;;;;;;;;;;5119514;27;20465;-73
2022/06/15 04:23:40;;;;;;;5.10;2.60;;;;;;;;;;5118480;27;20480;-73
2022/06/15 04:26:08;;;;;;;4.30;2.70;;;;;;;;;;5119594;27;20485;-73
2022/06/15 04:28:38;;;;;;;3.87;2.27;;;;;;;;;;5119424;28;20484;-74
2022/06/15 04:31:08;;;;;;;5.47;3.37;;;;;;;;;;5118642;27;20589;-74
2022/06/15 04:33:36;;;;;;;5.67;2.83;;;;;;;;;;5119170;27;20462;-74
2022/06/15 04:36:05;;;;;;;6.93;2.77;;;;;;;;;;5117352;27;20535;-74
2022/06/15 04:38:33;;;;;;;4.30;2.70;;;;;;;;;;5119141;27;20933;-74
2022/06/15 04:41:02;;;;;;;6.33;3.30;;;;;;;;;;5118415;27;20455;-73
2022/06/15 04:43:30;;;;;;;9.87;2.90;;;;;;;;;;5118567;27;20535;-73
2022/06/15 04:45:58;;;;;;;15.20;3.90;;;;;;;;;;5118335;28;20491;-74
2022/06/15 04:48:28;;;;;;;13.37;3.83;;;;;;;;;;5117941;27;20454;-73
2022/06/15 04:50:55;;;;;;;4.73;3.87;;;;;;;;;;5114966;27;20478;-73
2022/06/15 04:53:23;;;;;;;5.57;2.80;;;;;;;;;;5118728;27;20472;-73
2022/06/15 04:55:51;;;;;;;4.03;2.63;;;;;;;;;;5118509;27;20450;-74
2022/06/15 04:58:19;;;;;;;4.07;3.30;;;;;;;;;;5117666;27;20454;-74
2022/06/15 05:00:48;;;;;;;4.17;2.73;;;;;;;;;;5116341;27;20898;-73
2022/06/15 05:03:16;;;;;;;4.90;3.23;;;;;;;;;;5102210;27;20459;-73
2022/06/15 05:05:46;;;;;;;5.10;3.00;;;;;;;;;;5095113;28;20463;-73
2022/06/15 05:08:14;;;;;;;4.70;2.90;;;;;;;;;;5095318;28;20769;-73
2022/06/15 05:10:44;;;;;;;5.10;3.10;;;;;;;;;;5094264;28;20551;-73
2022/06/15 05:13:12;;;;;;;5.83;3.73;;;;;;;;;;5095868;28;20456;-73
2022/06/15 05:15:40;;;;;;;6.87;3.60;;;;;;;;;;5095281;28;20493;-73
2022/06/15 05:18:09;;;;;;;9.30;3.20;;;;;;;;;;5097194;28;20448;-73
2022/06/15 05:20:40;;;;;;;8.53;3.70;;;;;;;;;;5110729;27;20501;-73
2022/06/15 05:23:16;;;;;;;7.13;4.27;;;;;;;;;;5115858;27;20455;-73
2022/06/15 05:25:44;;;;;;;9.00;3.00;;;;;;;;;;5112360;28;20477;-73
2022/06/15 05:31:03;;;;;;;7.30;4.20;;;;;;;;;;5114079;27;21011;-74
2022/06/15 05:33:32;;;;;;;4.80;3.10;;;;;;;;;;5115658;27;20454;-73
2022/06/15 05:36:02;;;;;;;5.53;2.77;;;;;;;;;;5113888;28;20473;-73
2022/06/15 05:38:32;;;;;;;7.23;3.10;;;;;;;;;;5113225;27;20882;-73
2022/06/15 05:41:01;;;;;;;5.27;3.10;;;;;;;;;;5113691;27;20562;-73
2022/06/15 05:43:30;;;;;;;4.57;2.70;;;;;;;;;;5112809;27;20871;-73
2022/06/15 05:46:03;;;;;;;7.07;2.37;;;;;;;;;;5113851;27;20476;-73
2022/06/15 05:48:34;;;;;;;6.23;2.83;;;;;;;;;;5110422;27;20728;-73
2022/06/15 05:51:01;;;;;;;4.20;2.67;;;;;;;;;;5112471;27;20850;-73
2022/06/15 05:53:32;;;;;;;5.30;3.03;;;;;;;;;;5113867;27;20490;-73
2022/06/15 05:56:01;;;;;;;4.70;2.90;;;;;;;;;;5114243;27;20498;-73
2022/06/15 05:58:29;;;;;;;5.50;2.83;;;;;;;;;;5113003;27;20731;-73
2022/06/15 06:00:59;;;;;;;5.30;2.77;;;;;;;;;;5113594;27;20466;-73
2022/06/15 06:03:30;;;;;;;6.53;3.50;;;;;;;;;;5113561;27;20745;-73
2022/06/15 06:05:59;;;;;;;7.00;2.93;;;;;;;;;;5113346;27;20784;-73
2022/06/15 06:08:28;;;;;;;8.80;3.77;;;;;;;;;;5111302;27;20463;-72
2022/06/15 06:10:57;;;;;;;5.30;3.63;;;;;;;;;;5107556;27;20996;-71
2022/06/15 06:13:26;;;;;;;6.73;3.00;;;;;;;;;;5113246;27;20473;-71
2022/06/15 06:15:56;;;;;;;6.80;4.10;;;;;;;;;;5107743;28;20551;-71
2022/06/15 06:18:24;;;;;;;6.90;3.50;;;;;;;;;;5114100;27;20632;-72
2022/06/15 06:20:52;;;;;;;8.03;4.13;;;;;;;;;;5112929;28;20476;-72
2022/06/15 06:23:20;;;;;;;6.03;4.70;;;;;;;;;;5112326;27;20487;-71
2022/06/15 06:25:50;;;;;;;6.37;4.63;;;;;;;;;;5113354;27;20477;-72
2022/06/15 06:28:26;;;;;;;5.10;4.07;;;;;;;;;;5112318;27;20451;-71
2022/06/15 06:30:57;;;;;;;5.03;3.70;;;;;;;;;;5112808;27;20515;-71
2022/06/15 06:33:25;;;;;;;6.30;3.73;;;;;;;;;;5114487;27;20455;-72
2022/06/15 06:35:55;;;;;;;6.23;3.80;;;;;;;;;;5108764;27;20443;-73
2022/06/15 06:38:24;;;;;;;9.13;4.30;;;;;;;;;;5113494;27;20455;-74
2022/06/15 06:40:52;;;;;;;9.50;4.67;;;;;;;;;;5113908;27;20451;-74
2022/06/15 06:43:20;;;;;;;8.10;4.87;;;;;;;;;;5113699;27;20496;-74
2022/06/15 06:45:48;;;;;;;8.43;4.07;;;;;;;;;;5115043;27;20486;-74
2022/06/15 06:48:24;;;;;;;6.30;3.73;;;;;;;;;;5113410;27;20473;-73
2022/06/15 06:51:04;;;;;;;7.17;4.03;;;;;;;;;;5102387;27;20489;-75
2022/06/15 06:53:32;;;;;;;4.40;3.30;;;;;;;;;;5101640;28;20459;-73
2022/06/15 06:56:01;;;;;;;6.90;2.53;;;;;;;;;;5093884;28;20619;-73
2022/06/15 06:58:47;;;;;;;6.53;2.53;;;;;;;;;;5093430;28;20445;-73
2022/06/15 07:01:21;;;;;;;5.00;2.33;;;;;;;;;;5031832;28;20572;-75
2022/06/15 07:03:57;;;;;;;5.47;2.07;;;;;;;;;;5095294;28;20466;-73
2022/06/15 07:06:54;;;;;;;7.83;2.30;;;;;;;;;;5109215;27;20458;-74
2022/06/15 07:09:22;;;;;;;5.17;2.30;;;;;;;;;;5081509;28;20898;-72
2022/06/15 07:11:50;;;;;;;3.13;1.33;;;;;;;;;;5093642;28;20582;-72
2022/06/15 07:14:18;;;;;;;3.43;1.57;;;;;;;;;;5093677;28;20889;-73
2022/06/15 07:16:46;;;;;;;4.50;1.20;;;;;;;;;;5093708;28;20501;-73
2022/06/15 07:19:15;;;;;;;5.53;2.30;;;;;;;;;;5098658;28;20458;-74
2022/06/15 07:21:43;;;;;;;3.13;1.90;;;;;;;;;;5101786;28;20533;-74
2022/06/15 07:24:11;;;;;;;4.10;1.03;;;;;;;;;;5113412;27;20457;-74
2022/06/15 07:26:42;;;;;;;3.60;1.97;;;;;;;;;;5113428;27;20512;-74
2022/06/15 07:29:12;;;;;;;9.10;1.47;;;;;;;;;;5106332;27;20814;-74
2022/06/15 07:31:44;;;;;;;3.30;1.20;;;;;;;;;;5112767;27;20501;-75
2022/06/15 07:34:13;;;;;;;2.50;1.47;;;;;;;;;;5113824;28;20462;-75
2022/06/15 07:36:46;;;;;;;4.10;1.30;;;;;;;;;;5109924;28;20911;-74
2022/06/15 07:42:12;;;;;;;2.17;0.80;;;;;;;;;;5095256;27;20737;-75
2022/06/15 07:44:40;;;;;;;3.27;1.13;;;;;;;;;;5110443;28;20446;-74
2022/06/15 07:49:59;;;;;;;2.50;1.20;;;;;;;;;;5112223;27;20453;-74
2022/06/15 07:52:31;;;;;;;3.57;1.80;;;;;;;;;;5101955;28;20533;-76
2022/06/15 07:54:59;;;;;;;5.57;1.90;;;;;;;;;;5109744;28;20462;-74
2022/06/15 07:57:33;;;;;;;4.43;1.70;;;;;;;;;;5113018;28;20455;-74
2022/06/15 08:00:01;;;;;;;3.20;1.43;;;;;;;;;;5112297;28;20486;-74
2022/06/15 08:02:40;;;;;;;;;;;;;;;;;;;;;
2022/06/15 08:05:12;;;;;;;4.07;1.33;;;;;;;;;;5113650;28;20897;-76
2022/06/15 08:07:45;;;;;;;3.37;1.70;;;;;;;;;;5105981;28;20458;-76
2022/06/15 08:10:13;;;;;;;3.37;1.80;;;;;;;;;;5107582;27;20887;-73
2022/06/15 08:12:51;;;;;;;4.17;1.50;;;;;;;;;;5106498;28;20451;-75
2022/06/15 08:15:18;;;;;;;3.60;1.37;;;;;;;;;;5111283;28;20852;-76
2022/06/15 08:17:49;;;;;;;4.23;1.70;;;;;;;;;;5109355;28;20751;-74
2022/06/15 08:20:35;;;;;;;5.17;1.60;;;;;;;;;;5110006;28;20451;-74
2022/06/15 08:25:58;;;;;;;4.83;1.57;;;;;;;;;;5095632;28;20561;-75
2022/06/15 08:28:30;;;;;;;2.87;1.50;;;;;;;;;;5091587;28;20462;-75
2022/06/15 08:30:58;;;;;;;4.23;2.27;;;;;;;;;;5091004;28;20479;-75
2022/06/15 08:33:27;;;;;;;8.10;1.80;;;;;;;;;;5103792;27;20463;-74
2022/06/15 08:35:57;;;;;;;5.30;2.10;;;;;;;;;;5101009;28;20459;-74
2022/06/15 08:38:28;;;;;;;14.70;1.97;;;;;;;;;;5109869;28;20567;-74
2022/06/15 08:41:03;;;;;;;7.67;1.70;;;;;;;;;;5111157;28;20560;-75
2022/06/15 08:43:38;;;;;;;4.33;1.60;;;;;;;;;;5102404;28;20463;-74
2022/06/15 08:46:16;;;;;;;6.97;2.30;;;;;;;;;;5092378;28;20444;-74
2022/06/15 08:48:54;;;;;;;4.10;1.60;;;;;;;;;;5094135;28;20517;-75
2022/06/15 08:51:34;;;;;;;3.33;1.40;;;;;;;;;;5108996;28;20487;-74
2022/06/15 08:54:09;;;;;;;2.13;1.20;;;;;;;;;;5098882;28;20559;-74
2022/06/15 08:56:42;;;;;;;5.53;1.63;;;;;;;;;;5099858;28;20458;-74
2022/06/15 08:59:15;;;;;;;4.20;2.07;;;;;;;;;;5106305;28;20458;-74
2022/06/15 09:01:48;;;;;;;5.87;2.13;;;;;;;;;;5105523;28;20502;-73
2022/06/15 09:04:27;;;;;;;4.20;1.90;;;;;;;;;;5112034;28;20449;-76
2022/06/15 09:07:05;;;;;;;4.87;1.80;;;;;;;;;;5107208;27;20465;-76
2022/06/15 09:09:51;;;;;;;4.37;1.83;;;;;;;;;;5101223;28;20454;-75
2022/06/15 09:15:21;;;;;;;3.57;1.80;;;;;;;;;;5098286;28;20447;-74
2022/06/15 09:17:54;;;;;;;3.93;1.50;;;;;;;;;;5111657;27;20543;-74
2022/06/15 09:20:34;;;;;;;11.20;2.10;;;;;;;;;;5107895;27;20447;-75
2022/06/15 09:23:08;;;;;;;5.43;1.80;;;;;;;;;;5113002;27;20465;-74
2022/06/15 09:25:50;;;;;;;6.10;1.80;;;;;;;;;;5115443;27;20522;-75
2022/06/15 09:31:16;;;;;;;7.17;3.13;;;;;;;;;;5112093;27;20939;-73
2022/06/15 09:33:50;;;;;;;4.97;2.30;;;;;;;;;;5095007;28;20470;-73
2022/06/15 09:36:24;;;;;;;3.63;1.70;;;;;;;;;;5118738;27;20512;-74
2022/06/15 09:38:53;;;;;;;5.67;1.77;;;;;;;;;;5111636;27;20548;-74
2022/06/15 09:41:35;;;;;;;7.73;1.97;;;;;;;;;;5112422;27;20460;-74
2022/06/15 09:44:09;;;;;;;4.47;1.47;;;;;;;;;;5114017;27;20843;-74
2022/06/15 09:46:47;;;;;;;3.70;1.80;;;;;;;;;;5114803;27;20443;-72
2022/06/15 09:49:37;;;;;;;8.63;2.40;;;;;;;;;;5104681;27;20460;-75
2022/06/15 09:52:10;;;;;;;5.47;2.13;;;;;;;;;;5123990;27;20504;-75
2022/06/15 09:54:50;;;;;;;3.33;1.93;;;;;;;;;;5111752;27;20477;-75
2022/06/15 09:57:21;;;;;;;5.53;2.13;;;;;;;;;;5095277;28;21300;-74
2022/06/15 09:59:49;;;;;;;5.60;2.17;;;;;;;;;;5096092;28;20866;-73
2022/06/15 10:02:34;;;;;;;3.47;1.77;;;;;;;;;;5112837;27;20479;-74
2022/06/15 10:05:09;;;;;;;4.70;2.23;;;;;;;;;;5117147;27;20541;-74
2022/06/15 10:07:51;;;;;;;3.90;2.00;;;;;;;;;;5115796;27;20985;-74
2022/06/15 10:13:54;;;;;;;4.97;2.03;;;;;;;;;;5096835;28;20933;-73
2022/06/15 10:19:19;;;;;;;6.30;2.00;;;;;;;;;;5106097;27;20435;-73
2022/06/15 10:21:53;;;;;;;3.00;1.93;;;;;;;;;;5109521;28;20448;-73
2022/06/15 10:24:24;;;;;;;5.90;2.47;;;;;;;;;;5101549;28;20451;-74
2022/06/15 10:26:54;;;;;;;3.50;1.97;;;;;;;;;;5096493;28;20448;-73
2022/06/15 10:29:25;;;;;;;4.47;2.03;;;;;;;;;;5111890;28;20450;-73
2022/06/15 10:32:17;;;;;;;8.57;2.70;;;;;;;;;;5107278;28;20483;-73
2022/06/15 10:35:05;;;;;;;7.70;2.53;;;;;;;;;;5113813;28;20465;-73
2022/06/15 10:37:37;;;;;;;3.53;2.00;;;;;;;;;;5110643;28;20498;-73
2022/06/15 10:40:07;;;;;;;5.20;2.27;;;;;;;;;;5114013;28;20463;-73
2022/06/15 10:42:36;;;;;;;3.93;2.23;;;;;;;;;;5108777;28;20561;-74
2022/06/15 10:45:13;;;;;;;4.40;2.40;;;;;;;;;;5116552;27;20803;-73
2022/06/15 10:47:55;;;;;;;4.23;2.23;;;;;;;;;;5113940;27;21039;-72
2022/06/15 10:50:26;;;;;;;11.33;2.40;;;;;;;;;;5107444;28;20869;-72
2022/06/15 10:52:55;;;;;;;7.70;2.10;;;;;;;;;;5110069;28;21250;-75
2022/06/15 11:04:24;;;;;;;3.73;1.57;;;;;;;;;;5111156;28;20429;-73
2022/06/15 11:06:53;;;;;;;6.60;2.13;;;;;;;;;;5103859;28;20469;-73
2022/06/15 11:09:24;;;;;;;4.33;1.70;;;;;;;;;;5098926;28;20470;-74
2022/06/15 11:12:04;;;;;;;5.00;2.03;;;;;;;;;;5097776;27;20547;-74
2022/06/15 11:14:35;;;;;;;3.33;1.50;;;;;;;;;;5102303;28;20467;-74
2022/06/15 11:20:18;;;;;;;3.23;1.83;;;;;;;;;;5099402;28;20547;-73
2022/06/15 11:22:51;;;;;;;9.13;3.20;;;;;;;;;;5110725;28;20482;-74
2022/06/15 11:25:28;;;;;;;4.83;2.47;;;;;;;;;;5107816;27;20450;-73
2022/06/15 11:28:04;;;;;;;5.30;1.77;;;;;;;;;;5106357;27;20465;-74
2022/06/15 11:33:48;;;;;;;6.83;3.10;;;;;;;;;;5122315;27;20436;-74
2022/06/15 11:36:32;;;;;;;4.97;2.30;;;;;;;;;;5109669;28;20617;-75
2022/06/15 11:39:01;;;;;;;6.10;2.93;;;;;;;;;;5110236;27;20563;-74
2022/06/15 11:41:30;;;;;;;3.97;2.33;;;;;;;;;;5112227;27;21100;-74
2022/06/15 11:43:59;;;;;;;4.10;2.50;;;;;;;;;;5111250;28;20467;-73
2022/06/15 11:46:35;;;;;;;8.60;3.50;;;;;;;;;;5111651;28;20445;-72
2022/06/15 11:49:29;;;;;;;6.03;2.93;;;;;;;;;;5114554;27;20851;-74
2022/06/15 11:52:14;;;;;;;5.17;2.27;;;;;;;;;;5111056;27;20472;-73
2022/06/15 11:54:55;;;;;;;5.10;2.40;;;;;;;;;;5110464;27;20447;-73
2022/06/15 11:57:27;;;;;;;5.23;2.90;;;;;;;;;;5104040;27;20440;-74
2022/06/15 12:00:14;;;;;;;4.13;1.80;;;;;;;;;;5108690;27;20491;-75
2022/06/15 12:02:54;;;;;;;10.23;2.80;;;;;;;;;;5105235;28;20458;-73
2022/06/15 12:05:31;;;;;;;4.80;2.20;;;;;;;;;;5102058;27;20631;-74
2022/06/15 12:08:10;;;;;;;6.67;2.53;;;;;;;;;;5110548;28;20455;-76
2022/06/15 12:10:44;;;;;;;9.53;5.27;;;;;;;;;;5115212;28;20453;-73
2022/06/15 12:13:29;;;;;;;4.67;2.90;;;;;;;;;;5101245;28;20482;-75
2022/06/15 12:16:14;;;;;;;7.30;2.87;;;;;;;;;;5111650;28;20458;-73
2022/06/15 12:19:03;;;;;;;;;;;;;;;;;;;;;
2022/06/15 12:21:49;;;;;;;7.53;2.70;;;;;;;;;;5113444;28;20443;-76
2022/06/15 12:24:36;;;;;;;8.03;1.90;;;;;;;;;;5115540;28;20740;-75
2022/06/15 12:27:32;;;;;;;5.27;2.30;;;;;;;;;;5118776;28;20848;-76
2022/06/15 12:30:16;;;;;;;3.10;2.20;;;;;;;;;;5086364;28;20625;-76
2022/06/15 12:32:57;;;;;;;4.43;2.00;;;;;;;;;;5116420;28;20508;-75
2022/06/15 12:35:37;;;;;;;7.50;2.20;;;;;;;;;;5113508;28;20493;-75
2022/06/15 12:38:08;;;;;;;9.10;2.90;;;;;;;;;;5112902;28;20451;-76
2022/06/15 12:40:43;;;;;;;6.53;2.17;;;;;;;;;;5114258;27;20482;-75
2022/06/15 12:43:18;;;;;;;5.87;1.80;;;;;;;;;;5114954;27;20557;-73
2022/06/15 12:45:49;;;;;;;7.53;2.43;;;;;;;;;;5109480;27;20466;-73
2022/06/15 12:48:24;;;;;;;7.53;1.87;;;;;;;;;;5115048;27;20557;-74
2022/06/15 12:51:04;;;;;;;5.47;2.13;;;;;;;;;;5103623;28;20520;-76
2022/06/15 12:53:40;;;;;;;5.13;2.43;;;;;;;;;;5109508;27;20489;-76
2022/06/15 12:56:19;;;;;;;2.93;1.70;;;;;;;;;;5113479;27;20873;-73
2022/06/15 12:58:54;;;;;;;7.63;2.37;;;;;;;;;;5115417;27;20458;-74
2022/06/15 13:01:24;;;;;;;3.70;1.73;;;;;;;;;;5116934;27;20454;-75
2022/06/15 13:04:03;;;;;;;6.07;2.10;;;;;;;;;;5115029;27;20465;-75
2022/06/15 13:06:39;;;;;;;5.30;1.83;;;;;;;;;;5110004;27;20473;-75
2022/06/15 13:09:19;;;;;;;6.00;2.13;;;;;;;;;;5114068;27;20462;-74
2022/06/15 13:12:02;;;;;;;5.00;2.30;;;;;;;;;;5107603;27;20557;-74
2022/06/15 13:14:33;;;;;;;10.37;3.50;;;;;;;;;;5114476;27;21134;-75
2022/06/15 13:17:07;;;;;;;4.27;2.07;;;;;;;;;;5111326;27;20475;-76
2022/06/15 13:19:39;;;;;;;7.23;1.93;;;;;;;;;;5098157;28;20461;-74
2022/06/15 13:22:10;;;;;;;4.60;2.93;;;;;;;;;;5094024;28;20455;-73
2022/06/15 13:24:54;;;;;;;3.63;1.80;;;;;;;;;;5094921;28;20463;-73
2022/06/15 13:27:28;;;;;;;7.40;2.50;;;;;;;;;;5115805;27;20442;-75
2022/06/15 13:30:20;;;;;;;3.90;1.70;;;;;;;;;;5102573;28;20458;-74
2022/06/15 13:33:09;;;;;;;5.97;2.17;;;;;;;;;;5096342;27;20578;-74
2022/06/15 13:35:40;;;;;;;5.87;1.70;;;;;;;;;;5103469;27;20506;-73
2022/06/15 13:38:17;;;;;;;8.40;2.33;;;;;;;;;;5112762;27;20498;-74
2022/06/15 13:41:02;;;;;;;8.80;2.43;;;;;;;;;;5101036;27;20497;-74
2022/06/15 13:43:36;;;;;;;5.60;1.70;;;;;;;;;;5098826;27;20519;-74
2022/06/15 13:46:08;;;;;;;9.13;2.30;;;;;;;;;;5106517;28;21142;-74
2022/06/15 13:48:38;;;;;;;7.10;2.50;;;;;;;;;;5109113;27;20470;-74
2022/06/15 13:51:09;;;;;;;5.00;2.10;;;;;;;;;;5104338;28;20857;-74
2022/06/15 13:53:48;;;;;;;4.80;2.67;;;;;;;;;;5099320;28;20491;-76
2022/06/15 13:56:32;;;;;;;4.93;2.30;;;;;;;;;;5102013;27;20546;-75
2022/06/15 13:59:12;;;;;;;4.37;2.07;;;;;;;;;;5105794;27;21032;-74
2022/06/15 14:01:48;;;;;;;4.57;2.10;;;;;;;;;;5101642;27;20562;-74
2022/06/15 14:04:21;;;;;;;4.70;1.73;;;;;;;;;;5100722;28;20802;-75
2022/06/15 14:07:00;;;;;;;6.07;1.93;;;;;;;;;;5103021;28;20444;-75
2022/06/15 14:09:33;;;;;;;7.00;2.00;;;;;;;;;;5101169;27;20465;-74
2022/06/15 14:12:14;;;;;;;7.73;1.90;;;;;;;;;;5104989;28;20478;-73
2022/06/15 14:15:07;;;;;;;3.73;2.20;;;;;;;;;;5098075;28;20533;-74
2022/06/15 14:17:55;;;;;;;4.93;1.83;;;;;;;;;;5078939;28;20976;-74
2022/06/15 14:20:31;;;;;;;3.80;2.43;;;;;;;;;;5094998;28;20473;-75
2022/06/15 14:23:06;;;;;;;3.53;1.70;;;;;;;;;;5094675;28;20561;-74
2022/06/15 14:25:37;;;;;;;4.20;1.90;;;;;;;;;;5096728;28;20924;-72
2022/06/15 14:28:09;;;;;;;4.83;2.60;;;;;;;;;;5112841;27;20443;-73
2022/06/15 14:30:45;;;;;;;5.30;1.83;;;;;;;;;;5105929;27;20463;-73
2022/06/15 14:33:21;;;;;;;4.03;2.10;;;;;;;;;;5103083;27;20478;-73
2022/06/15 14:35:59;;;;;;;3.07;2.13;;;;;;;;;;5102310;27;20479;-73
2022/06/15 14:38:30;;;;;;;3.43;1.90;;;;;;;;;;5116192;27;21077;-73
2022/06/15 14:41:13;;;;;;;5.50;2.13;;;;;;;;;;5110714;27;20466;-73
2022/06/15 14:43:41;;;;;;;3.90;1.80;;;;;;;;;;5118314;27;20486;-74
2022/06/15 14:46:16;;;;;;;5.23;2.13;;;;;;;;;;5106433;27;20970;-74
2022/06/15 14:48:50;;;;;;;5.73;1.67;;;;;;;;;;5105364;27;20447;-73
2022/06/15 14:51:19;;;;;;;4.50;1.73;;;;;;;;;;5110668;27;20544;-74
2022/06/15 14:53:59;;;;;;;3.90;1.67;;;;;;;;;;5104886;27;20495;-73
2022/06/15 14:56:29;;;;;;;3.30;1.60;;;;;;;;;;5102113;28;21143;-73
2022/06/15 14:59:04;;;;;;;4.97;1.80;;;;;;;;;;5095803;28;20508;-73
2022/06/15 15:01:32;;;;;;;4.80;2.43;;;;;;;;;;5107774;27;20911;-73
2022/06/15 15:04:18;;;;;;;6.70;2.37;;;;;;;;;;5098813;28;20941;-73
2022/06/15 15:06:52;;;;;;;4.50;2.10;;;;;;;;;;5101080;27;20835;-73
2022/06/15 15:09:21;;;;;;;3.80;2.03;;;;;;;;;;5096916;28;21084;-75
2022/06/15 15:11:52;;;;;;;4.07;1.87;;;;;;;;;;5111252;27;20946;-73
2022/06/15 15:14:28;;;;;;;3.70;1.60;;;;;;;;;;5112314;27;20482;-74
2022/06/15 15:16:57;;;;;;;2.93;1.60;;;;;;;;;;5112432;27;20457;-75
2022/06/15 15:19:32;;;;;;;5.10;1.97;;;;;;;;;;5107217;27;20466;-74
2022/06/15 15:22:02;;;;;;;3.67;1.63;;;;;;;;;;5105373;28;20873;-74
2022/06/15 15:24:31;;;;;;;9.57;7.73;;;;;;;;;;5104843;27;20466;-73
2022/06/15 15:27:00;;;;;;;3.90;1.50;;;;;;;;;;5100739;28;20605;-72
2022/06/15 15:35:53;;;;;;;7.20;2.50;;;;;;;;;;5090396;28;20935;-73
2022/06/15 15:38:28;;;;;;;4.53;1.90;;;;;;;;;;5089119;28;20519;-73
2022/06/15 15:41:02;;;;;;;4.43;1.70;;;;;;;;;;5096481;28;21112;-73
2022/06/15 15:43:44;;;;;;;4.10;1.90;;;;;;;;;;5098094;28;20462;-73
2022/06/15 15:46:15;;;;;;;4.00;1.60;;;;;;;;;;5091771;28;20473;-72
2022/06/15 15:48:43;;;;;;;5.93;1.80;;;;;;;;;;5098582;27;20490;-73
2022/06/15 15:51:43;;;;;;;19.70;13.87;;;;;;;;;;5093377;28;20471;-73
2022/06/15 15:54:18;;;;;;;3.97;1.90;;;;;;;;;;5093415;28;20487;-73
2022/06/15 15:56:48;;;;;;;5.67;1.70;;;;;;;;;;5092468;28;20473;-72
2022/06/15 15:59:17;;;;;;;5.30;1.67;;;;;;;;;;5091303;28;20541;-73
2022/06/15 16:01:47;;;;;;;2.53;1.50;;;;;;;;;;5104330;27;21857;-74
2022/06/15 16:04:21;;;;;;;6.10;1.90;;;;;;;;;;5112616;28;20489;-73